<?xml version="1.0" encoding="UTF-8"?>
<gpx
version="1.1"
creator="Kashmir3D 9.310 - http://www.kashmir3d.com"
xmlns:xsi="http://www.w3.org/2001/XMLSchema-instance"
xmlns="http://www.topografix.com/GPX/1/1"
xmlns:kashmir3d="http://www.kashmir3d.com/namespace/kashmir3d"
xsi:schemaLocation="http://www.topografix.com/GPX/1/1 http://www.topografix.com/GPX/1/1/gpx.xsd
	http://www.kashmir3d.com/namespace/kashmir3d http://www.kashmir3d.com/namespace/kashmir3d.xsd">
<trk>
 <name>天狗岩</name>
 <number>1</number>
 <extensions>
 <kashmir3d:line_color>0000ff</kashmir3d:line_color>
 <kashmir3d:line_size>3</kashmir3d:line_size>
 <kashmir3d:line_style>1</kashmir3d:line_style>
 <kashmir3d:icon>901001</kashmir3d:icon>
 </extensions>
<trkseg>
<trkpt lat="34.752172" lon="135.236771">
 <ele>-0.001000</ele>
 <time>2019-07-12T03:52:25Z</time>
</trkpt>
<trkpt lat="34.752198" lon="135.236954">
 <ele>-0.001000</ele>
 <time>2019-07-12T03:52:35Z</time>
</trkpt>
<trkpt lat="34.752018" lon="135.237844">
 <ele>-0.001000</ele>
 <time>2019-07-12T03:52:45Z</time>
</trkpt>
<trkpt lat="34.752018" lon="135.238005">
 <ele>-0.001000</ele>
 <time>2019-07-12T03:52:55Z</time>
</trkpt>
<trkpt lat="34.752095" lon="135.238209">
 <ele>-0.001000</ele>
 <time>2019-07-12T03:53:05Z</time>
</trkpt>
<trkpt lat="34.752181" lon="135.238370">
 <ele>-0.001000</ele>
 <time>2019-07-12T03:53:15Z</time>
</trkpt>
<trkpt lat="34.752336" lon="135.238413">
 <ele>-0.001000</ele>
 <time>2019-07-12T03:53:25Z</time>
</trkpt>
<trkpt lat="34.752439" lon="135.238413">
 <ele>-0.001000</ele>
 <time>2019-07-12T03:53:35Z</time>
</trkpt>
<trkpt lat="34.752550" lon="135.238284">
 <ele>-0.001000</ele>
 <time>2019-07-12T03:53:45Z</time>
</trkpt>
<trkpt lat="34.752696" lon="135.238295">
 <ele>-0.001000</ele>
 <time>2019-07-12T03:53:55Z</time>
</trkpt>
<trkpt lat="34.752911" lon="135.238327">
 <ele>-0.001000</ele>
 <time>2019-07-12T03:54:05Z</time>
</trkpt>
<trkpt lat="34.753005" lon="135.238273">
 <ele>-0.001000</ele>
 <time>2019-07-12T03:54:15Z</time>
</trkpt>
<trkpt lat="34.753082" lon="135.237930">
 <ele>-0.001000</ele>
 <time>2019-07-12T03:54:25Z</time>
</trkpt>
<trkpt lat="34.753108" lon="135.237758">
 <ele>-0.001000</ele>
 <time>2019-07-12T03:54:35Z</time>
</trkpt>
<trkpt lat="34.753228" lon="135.237673">
 <ele>-0.001000</ele>
 <time>2019-07-12T03:54:45Z</time>
</trkpt>
<trkpt lat="34.753383" lon="135.237651">
 <ele>-0.001000</ele>
 <time>2019-07-12T03:54:55Z</time>
</trkpt>
<trkpt lat="34.753537" lon="135.237716">
 <ele>-0.001000</ele>
 <time>2019-07-12T03:55:05Z</time>
</trkpt>
<trkpt lat="34.753666" lon="135.237801">
 <ele>-0.001000</ele>
 <time>2019-07-12T03:55:15Z</time>
</trkpt>
<trkpt lat="34.753786" lon="135.237726">
 <ele>-0.001000</ele>
 <time>2019-07-12T03:55:25Z</time>
</trkpt>
<trkpt lat="34.753889" lon="135.237598">
 <ele>-0.001000</ele>
 <time>2019-07-12T03:55:35Z</time>
</trkpt>
<trkpt lat="34.754078" lon="135.237522">
 <ele>-0.001000</ele>
 <time>2019-07-12T03:55:45Z</time>
</trkpt>
<trkpt lat="34.754138" lon="135.237694">
 <ele>-0.001000</ele>
 <time>2019-07-12T03:55:55Z</time>
</trkpt>
<trkpt lat="34.754258" lon="135.237909">
 <ele>-0.001000</ele>
 <time>2019-07-12T03:56:05Z</time>
</trkpt>
<trkpt lat="34.754395" lon="135.238037">
 <ele>-0.001000</ele>
 <time>2019-07-12T03:56:15Z</time>
</trkpt>
<trkpt lat="34.754601" lon="135.237984">
 <ele>-0.001000</ele>
 <time>2019-07-12T03:56:25Z</time>
</trkpt>
<trkpt lat="34.754936" lon="135.238456">
 <ele>-0.001000</ele>
 <time>2019-07-12T03:56:35Z</time>
</trkpt>
<trkpt lat="34.755074" lon="135.238649">
 <ele>-0.001000</ele>
 <time>2019-07-12T03:56:45Z</time>
</trkpt>
<trkpt lat="34.755211" lon="135.239110">
 <ele>-0.001000</ele>
 <time>2019-07-12T03:56:55Z</time>
</trkpt>
<trkpt lat="34.755322" lon="135.239357">
 <ele>-0.001000</ele>
 <time>2019-07-12T03:57:05Z</time>
</trkpt>
<trkpt lat="34.755477" lon="135.239550">
 <ele>-0.001000</ele>
 <time>2019-07-12T03:57:15Z</time>
</trkpt>
<trkpt lat="34.755537" lon="135.239797">
 <ele>-0.001000</ele>
 <time>2019-07-12T03:57:25Z</time>
</trkpt>
<trkpt lat="34.755666" lon="135.240290">
 <ele>-0.001000</ele>
 <time>2019-07-12T03:57:35Z</time>
</trkpt>
<trkpt lat="34.755846" lon="135.240687">
 <ele>-0.001000</ele>
 <time>2019-07-12T03:57:45Z</time>
</trkpt>
<trkpt lat="34.755983" lon="135.240881">
 <ele>-0.001000</ele>
 <time>2019-07-12T03:57:55Z</time>
</trkpt>
<trkpt lat="34.756052" lon="135.241095">
 <ele>-0.001000</ele>
 <time>2019-07-12T03:58:05Z</time>
</trkpt>
<trkpt lat="34.756052" lon="135.241374">
 <ele>-0.001000</ele>
 <time>2019-07-12T03:58:15Z</time>
</trkpt>
<trkpt lat="34.755949" lon="135.241642">
 <ele>-0.001000</ele>
 <time>2019-07-12T03:58:25Z</time>
</trkpt>
<trkpt lat="34.755897" lon="135.241910">
 <ele>-0.001000</ele>
 <time>2019-07-12T03:58:35Z</time>
</trkpt>
<trkpt lat="34.755880" lon="135.242071">
 <ele>-0.001000</ele>
 <time>2019-07-12T03:58:45Z</time>
</trkpt>
<trkpt lat="34.755812" lon="135.242222">
 <ele>-0.001000</ele>
 <time>2019-07-12T03:58:55Z</time>
</trkpt>
<trkpt lat="34.755769" lon="135.242372">
 <ele>-0.001000</ele>
 <time>2019-07-12T03:59:05Z</time>
</trkpt>
<trkpt lat="34.755794" lon="135.242533">
 <ele>-0.001000</ele>
 <time>2019-07-12T03:59:15Z</time>
</trkpt>
<trkpt lat="34.755863" lon="135.242662">
 <ele>-0.001000</ele>
 <time>2019-07-12T03:59:25Z</time>
</trkpt>
<trkpt lat="34.755983" lon="135.242726">
 <ele>-0.001000</ele>
 <time>2019-07-12T03:59:35Z</time>
</trkpt>
<trkpt lat="34.756121" lon="135.242737">
 <ele>-0.001000</ele>
 <time>2019-07-12T03:59:45Z</time>
</trkpt>
<trkpt lat="34.756224" lon="135.242683">
 <ele>-0.001000</ele>
 <time>2019-07-12T03:59:55Z</time>
</trkpt>
<trkpt lat="34.756318" lon="135.242683">
 <ele>-0.001000</ele>
 <time>2019-07-12T04:00:05Z</time>
</trkpt>
<trkpt lat="34.756387" lon="135.242758">
 <ele>-0.001000</ele>
 <time>2019-07-12T04:00:15Z</time>
</trkpt>
<trkpt lat="34.756507" lon="135.242865">
 <ele>-0.001000</ele>
 <time>2019-07-12T04:00:25Z</time>
</trkpt>
<trkpt lat="34.756601" lon="135.242919">
 <ele>-0.001000</ele>
 <time>2019-07-12T04:00:35Z</time>
</trkpt>
<trkpt lat="34.756713" lon="135.242983">
 <ele>-0.001000</ele>
 <time>2019-07-12T04:00:45Z</time>
</trkpt>
<trkpt lat="34.756747" lon="135.243091">
 <ele>-0.001000</ele>
 <time>2019-07-12T04:00:55Z</time>
</trkpt>
<trkpt lat="34.756739" lon="135.243230">
 <ele>-0.001000</ele>
 <time>2019-07-12T04:01:05Z</time>
</trkpt>
<trkpt lat="34.756704" lon="135.243370">
 <ele>-0.001000</ele>
 <time>2019-07-12T04:01:15Z</time>
</trkpt>
<trkpt lat="34.756704" lon="135.243531">
 <ele>-0.001000</ele>
 <time>2019-07-12T04:01:25Z</time>
</trkpt>
<trkpt lat="34.756747" lon="135.243702">
 <ele>-0.001000</ele>
 <time>2019-07-12T04:01:35Z</time>
</trkpt>
<trkpt lat="34.756885" lon="135.243885">
 <ele>-0.001000</ele>
 <time>2019-07-12T04:01:45Z</time>
</trkpt>
<trkpt lat="34.757073" lon="135.243970">
 <ele>-0.001000</ele>
 <time>2019-07-12T04:01:55Z</time>
</trkpt>
<trkpt lat="34.757219" lon="135.244024">
 <ele>-0.001000</ele>
 <time>2019-07-12T04:02:05Z</time>
</trkpt>
<trkpt lat="34.757357" lon="135.244078">
 <ele>-0.001000</ele>
 <time>2019-07-12T04:02:15Z</time>
</trkpt>
<trkpt lat="34.757451" lon="135.244142">
 <ele>-0.001000</ele>
 <time>2019-07-12T04:02:25Z</time>
</trkpt>
<trkpt lat="34.757494" lon="135.244228">
 <ele>-0.001000</ele>
 <time>2019-07-12T04:02:35Z</time>
</trkpt>
<trkpt lat="34.757485" lon="135.244367">
 <ele>-0.001000</ele>
 <time>2019-07-12T04:02:45Z</time>
</trkpt>
<trkpt lat="34.757451" lon="135.244485">
 <ele>-0.001000</ele>
 <time>2019-07-12T04:02:55Z</time>
</trkpt>
<trkpt lat="34.757365" lon="135.244603">
 <ele>-0.001000</ele>
 <time>2019-07-12T04:03:05Z</time>
</trkpt>
<trkpt lat="34.757271" lon="135.244657">
 <ele>-0.001000</ele>
 <time>2019-07-12T04:03:15Z</time>
</trkpt>
<trkpt lat="34.757022" lon="135.244711">
 <ele>-0.001000</ele>
 <time>2019-07-12T04:03:25Z</time>
</trkpt>
<trkpt lat="34.756799" lon="135.244818">
 <ele>-0.001000</ele>
 <time>2019-07-12T04:03:35Z</time>
</trkpt>
<trkpt lat="34.756653" lon="135.244904">
 <ele>-0.001000</ele>
 <time>2019-07-12T04:03:45Z</time>
</trkpt>
<trkpt lat="34.756550" lon="135.244947">
 <ele>-0.001000</ele>
 <time>2019-07-12T04:03:55Z</time>
</trkpt>
<trkpt lat="34.756447" lon="135.244925">
 <ele>-0.001000</ele>
 <time>2019-07-12T04:04:05Z</time>
</trkpt>
<trkpt lat="34.756292" lon="135.244807">
 <ele>-0.001000</ele>
 <time>2019-07-12T04:04:15Z</time>
</trkpt>
<trkpt lat="34.756164" lon="135.244571">
 <ele>-0.001000</ele>
 <time>2019-07-12T04:04:25Z</time>
</trkpt>
<trkpt lat="34.756103" lon="135.244410">
 <ele>-0.001000</ele>
 <time>2019-07-12T04:04:35Z</time>
</trkpt>
<trkpt lat="34.755975" lon="135.244464">
 <ele>-0.001000</ele>
 <time>2019-07-12T04:04:45Z</time>
</trkpt>
<trkpt lat="34.755803" lon="135.244475">
 <ele>-0.001000</ele>
 <time>2019-07-12T04:04:55Z</time>
</trkpt>
<trkpt lat="34.755700" lon="135.244378">
 <ele>-0.001000</ele>
 <time>2019-07-12T04:05:05Z</time>
</trkpt>
<trkpt lat="34.755580" lon="135.244228">
 <ele>-0.001000</ele>
 <time>2019-07-12T04:05:15Z</time>
</trkpt>
<trkpt lat="34.755417" lon="135.244121">
 <ele>-0.001000</ele>
 <time>2019-07-12T04:05:25Z</time>
</trkpt>
<trkpt lat="34.755271" lon="135.244110">
 <ele>-0.001000</ele>
 <time>2019-07-12T04:05:35Z</time>
</trkpt>
<trkpt lat="34.755168" lon="135.244142">
 <ele>-0.001000</ele>
 <time>2019-07-12T04:05:45Z</time>
</trkpt>
<trkpt lat="34.755082" lon="135.244249">
 <ele>-0.001000</ele>
 <time>2019-07-12T04:05:55Z</time>
</trkpt>
<trkpt lat="34.755048" lon="135.244335">
 <ele>-0.001000</ele>
 <time>2019-07-12T04:06:05Z</time>
</trkpt>
<trkpt lat="34.755031" lon="135.244464">
 <ele>-0.001000</ele>
 <time>2019-07-12T04:06:15Z</time>
</trkpt>
<trkpt lat="34.755082" lon="135.244603">
 <ele>-0.001000</ele>
 <time>2019-07-12T04:06:25Z</time>
</trkpt>
<trkpt lat="34.755091" lon="135.244711">
 <ele>-0.001000</ele>
 <time>2019-07-12T04:06:35Z</time>
</trkpt>
<trkpt lat="34.755099" lon="135.244786">
 <ele>-0.001000</ele>
 <time>2019-07-12T04:06:45Z</time>
</trkpt>
<trkpt lat="34.754953" lon="135.244829">
 <ele>-0.001000</ele>
 <time>2019-07-12T04:06:55Z</time>
</trkpt>
<trkpt lat="34.754859" lon="135.244882">
 <ele>-0.001000</ele>
 <time>2019-07-12T04:07:05Z</time>
</trkpt>
<trkpt lat="34.754730" lon="135.244904">
 <ele>-0.001000</ele>
 <time>2019-07-12T04:07:15Z</time>
</trkpt>
<trkpt lat="34.754619" lon="135.244915">
 <ele>-0.001000</ele>
 <time>2019-07-12T04:07:25Z</time>
</trkpt>
<trkpt lat="34.754541" lon="135.244990">
 <ele>-0.001000</ele>
 <time>2019-07-12T04:07:35Z</time>
</trkpt>
<trkpt lat="34.754389" lon="135.244972">
 <ele>766.000000</ele>
 <time>2019-07-12T04:07:45Z</time>
</trkpt>
</trkseg>
</trk>
</gpx>
